Flight Track Log - Related Links

Times and Time Zones

All times are in EDT time to prevent confusion due to time zone crossing. See the JZA8106 flight status page for this flight to view local times or setup timezone preferences in your user account.

Time Position Orientation Groundspeed Altitude Reporting Facility
EDT Latitude Longitude Course Direction KTS MPH feet Rate Location/Type
Sun 09:35:23 PM 51.0833 -114.0333 360° North 10 12 3,500  Level Edmonton Center
Sun 09:38:47 PM 51.1000 -114.0333 360° North 40 46 3,500  Level Edmonton Center
Sun 09:58:56 PM 51.0833 -114.0333 180° South 10 12 3,500  Level Edmonton Center
Sun 10:02:56 PM 51.0833 -114.0333 279° West 20 23 3,500  Level Edmonton Center
Sun 10:05:56 PM 51.0833 -114.0333 279° West 20 23 3,500  Level Edmonton Center
Sun 10:07:56 PM 51.0667 -114.0333 180° South 20 23 3,500  Level Edmonton Center
Sun 10:08:56 PM 51.0667 -114.0333 261° West 10 12 3,500  Level Edmonton Center
Sun 10:11:56 PM 51.0667 -114.0333 261° West 80 92 3,500 500 Level Edmonton Center
Sun 10:12:56 PM 51.1167 -114.0333 360° North 180 207 5,500 2,150 Climbing Edmonton Center
Sun 10:13:56 PM 51.1667 -114.0167 12° North 220 253 7,800 2,550 Climbing Edmonton Center
Sun 10:14:56 PM 51.1500 -113.9333 108° East 240 276 10,600 2,200 Climbing Edmonton Center
Sun 10:15:56 PM 51.0833 -113.9000 163° South 290 334 12,200 2,100 Climbing Edmonton Center
Sun 10:16:56 PM 51.0000 -113.8833 173° South 300 345 14,800 2,350 Climbing Edmonton Center
Sun 10:17:56 PM 50.9167 -113.8667 173° South 320 368 16,900 1,150 Climbing Edmonton Center
Sun 10:18:56 PM 50.8167 -113.8500 174° South 380 437 17,100 1,000 Climbing Edmonton Center
Sun 10:19:56 PM 50.7000 -113.8000 165° South 400 460 18,900 1,850 Climbing Edmonton Center
Sun 10:20:56 PM 50.5833 -113.7667 170° South 410 472 20,800 1,700 Climbing Edmonton Center
Sun 10:21:56 PM 50.4667 -113.7500 175° South 410 472 22,300 1,400 Climbing Edmonton Center
Sun 10:22:56 PM 50.3500 -113.7167 170° South 420 483 23,600 1,300 Climbing Edmonton Center
Sun 10:23:56 PM 50.2333 -113.7000 175° South 420 483 24,900 1,200 Climbing Edmonton Center
Sun 10:24:56 PM 50.1167 -113.6500 165° South 430 495 26,000 1,250 Climbing Edmonton Center
Sun 10:25:56 PM 50.0000 -113.6333 175° South 440 506 27,400 1,600 Climbing Edmonton Center
Sun 10:26:56 PM 49.8667 -113.6000 171° South 430 495 29,200 1,600 Climbing Edmonton Center
Sun 10:27:56 PM 49.7500 -113.5500 165° South 420 483 30,600 1,350 Climbing Edmonton Center
Sun 10:28:56 PM 49.6500 -113.4833 157° South 430 495 31,900 1,150 Climbing Edmonton Center
Sun 10:29:56 PM 49.5500 -113.3833 147° Southeast 420 483 32,900 750 Climbing Edmonton Center
Sun 10:30:56 PM 49.4500 -113.2833 147° Southeast 430 495 33,400 800 Climbing Edmonton Center
Sun 10:31:56 PM 49.3333 -113.1833 151° Southeast 440 506 34,500 800 Climbing Edmonton Center
Sun 10:32:56 PM 49.2500 -113.1000 147° Southeast 440 506 35,000 700 Climbing Edmonton Center
Sun 10:33:56 PM 49.1333 -112.9667 143° Southeast 450 518 35,900 650 Climbing Edmonton Center
Sun 10:34:56 PM 49.0333 -112.8833 151° Southeast 440 506 36,300 500 Climbing Edmonton Center
Sun 10:35:56 PM 48.9333 -112.7833 147° Southeast 440 506 36,900 462 Climbing Edmonton Center
Sun 10:36:53 PM 48.8728 -112.6886 134° Southeast 453 521 37,200 305 Climbing Salt Lake Center
Sun 10:37:54 PM 48.7508 -112.5775 149° Southeast 459 528 37,500 390 Climbing Salt Lake Center
Sun 10:38:56 PM 48.6414 -112.4767 149° Southeast 462 532 38,000 439 Climbing Salt Lake Center
Sun 10:39:57 PM 48.5328 -112.3786 149° Southeast 458 527 38,400 390 Climbing Salt Lake Center
Sun 10:40:59 PM 48.4231 -112.2778 149° Southeast 461 531 38,800 293 Climbing Salt Lake Center
Sun 10:42:00 PM 48.3133 -112.1794 149° Southeast 460 529 39,000 98 Climbing Salt Lake Center
Sun 10:43:02 PM 48.1797 -112.0594 149° Southeast 466 536 39,000  Level Salt Lake Center
Sun 10:44:04 PM 48.0675 -111.9578 149° Southeast 471 542 39,000  Level Salt Lake Center
Sun 10:45:05 PM 47.9547 -111.8561 149° Southeast 475 547 39,000  Level Salt Lake Center
Sun 10:46:07 PM 47.8414 -111.7567 149° Southeast 475 547 39,000  Level Salt Lake Center
Sun 10:47:08 PM 47.7283 -111.6572 149° Southeast 477 549 39,000  Level Salt Lake Center
Sun 10:48:10 PM 47.6161 -111.5581 149° Southeast 477 549 39,000  Level Salt Lake Center
Sun 10:49:11 PM 47.4825 -111.4408 149° Southeast 478 550 39,000  Level Salt Lake Center
Sun 10:50:13 PM 47.3778 -111.3256 143° Southeast 480 552 39,000  Level Salt Lake Center
Sun 10:51:14 PM 47.2750 -111.2036 141° Southeast 481 554 39,000  Level Salt Lake Center
Sun 10:52:16 PM 47.1725 -111.0803 141° Southeast 479 551 39,000  Level Salt Lake Center
Sun 10:53:17 PM 47.0681 -110.9575 141° Southeast 482 555 39,000  Level Salt Lake Center
Sun 10:54:19 PM 46.9436 -110.8108 141° Southeast 482 555 39,000  Level Salt Lake Center
Sun 10:55:20 PM 46.8406 -110.6878 141° Southeast 481 554 39,000  Level Salt Lake Center
Sun 10:56:22 PM 46.7356 -110.5664 142° Southeast 483 556 39,000  Level Salt Lake Center
Sun 10:57:23 PM 46.6247 -110.4406 142° Southeast 483 556 39,000  Level Salt Lake Center
Sun 10:58:25 PM 46.5242 -110.3242 141° Southeast 482 555 39,000  Level Salt Lake Center
Sun 10:59:27 PM 46.4067 -110.1906 142° Southeast 482 555 39,000  Level Salt Lake Center
Sun 11:00:28 PM 46.3058 -110.0744 141° Southeast 481 554 39,000  Level Salt Lake Center
Sun 11:01:30 PM 46.1878 -109.9397 142° Southeast 483 556 39,000  Level Salt Lake Center
Sun 11:02:31 PM 46.0861 -109.8253 142° Southeast 484 557 39,000  Level Salt Lake Center
Sun 11:03:33 PM 45.9864 -109.7100 141° Southeast 481 554 39,000  Level Salt Lake Center
Sun 11:04:34 PM 45.8669 -109.5767 142° Southeast 486 559 39,000  Level Salt Lake Center
Sun 11:05:35 PM 45.7644 -109.4622 142° Southeast 489 563 39,000  Level Salt Lake Center
Sun 11:06:37 PM 45.6611 -109.3486 142° Southeast 490 564 39,000  Level Salt Lake Center
Sun 11:07:38 PM 45.5400 -109.2164 143° Southeast 491 565 39,000  Level Salt Lake Center
Sun 11:08:39 PM 45.4358 -109.1022 142° Southeast 493 567 39,000  Level Salt Lake Center
Sun 11:09:41 PM 45.3153 -108.9700 142° Southeast 490 564 39,000  Level Salt Lake Center
Sun 11:10:42 PM 45.2111 -108.8594 143° Southeast 490 564 39,000  Level Salt Lake Center
Sun 11:11:43 PM 45.1078 -108.7481 143° Southeast 490 564 39,000  Level Salt Lake Center
Sun 11:12:44 PM 44.9883 -108.6183 142° Southeast 486 559 39,000  Level Salt Lake Center
Sun 11:13:46 PM 44.8858 -108.5089 143° Southeast 485 558 39,000  Level Salt Lake Center
Sun 11:14:47 PM 44.7672 -108.3786 142° Southeast 487 560 39,000  Level Salt Lake Center
Sun 11:15:48 PM 44.6656 -108.2694 143° Southeast 486 559 39,000  Level Salt Lake Center
Sun 11:16:49 PM 44.5464 -108.1411 142° Southeast 488 562 39,000  Level Salt Lake Center
Sun 11:17:51 PM 44.4461 -108.0314 142° Southeast 484 557 39,000  Level Salt Lake Center
Sun 11:18:52 PM 44.3442 -107.9214 142° Southeast 484 557 39,000  Level Salt Lake Center
Sun 11:19:53 PM 44.2250 -107.7961 143° Southeast 483 556 39,000  Level Salt Lake Center
Sun 11:20:54 PM 44.1231 -107.6858 142° Southeast 486 559 39,000  Level Salt Lake Center
Sun 11:21:55 PM 44.0028 -107.5583 143° Southeast 488 562 39,000  Level Salt Lake Center
Sun 11:22:56 PM 43.8972 -107.4533 144° Southeast 488 562 39,000  Level Salt Lake Center
Sun 11:23:58 PM 43.7958 -107.3458 143° Southeast 485 558 39,000  Level Salt Lake Center
Sun 11:24:59 PM 43.6783 -107.2181 142° Southeast 483 556 39,000  Level Salt Lake Center
Sun 11:26:00 PM 43.5753 -107.1111 143° Southeast 486 559 39,000  Level Salt Lake Center
Sun 11:27:01 PM 43.4583 -106.9894 143° Southeast 474 545 39,000  Level Salt Lake Center
Sun 11:27:57 PM 43.3758 -106.9031 143° Southeast 470 541 39,000  Level Denver Center
Sun 11:28:58 PM 43.2583 -106.7822 143° Southeast 471 542 39,000  Level Denver Center
Sun 11:30:00 PM 43.1561 -106.6781 143° Southeast 478 550 39,000  Level Denver Center
Sun 11:31:01 PM 43.0350 -106.5558 144° Southeast 484 557 39,000  Level Denver Center
Sun 11:32:02 PM 42.9300 -106.4492 143° Southeast 490 564 39,000  Level Denver Center
Sun 11:33:15 PM 42.7919 -106.3092 143° Southeast 487 560 39,000  Level Denver Center
Sun 11:34:17 PM 42.6847 -106.2042 144° Southeast 495 570 39,000  Level Denver Center
Sun 11:36:11 PM 42.4853 -106.0053 144° Southeast 472 543 39,000  Level Salt Lake Center
Sun 11:37:13 PM 42.3889 -105.8986 141° Southeast 470 541 39,000  Level Salt Lake Center
Sun 11:38:14 PM 42.2722 -105.7714 141° Southeast 480 552 39,000  Level Salt Lake Center
Sun 11:39:22 PM 42.1625 -105.6478 140° Southeast 470 541 39,000  Level Denver Center
Sun 11:40:23 PM 42.0658 -105.5386 140° Southeast 474 545 39,000  Level Denver Center
Sun 11:41:24 PM 41.9522 -105.4142 141° Southeast 474 545 39,000  Level Denver Center
Sun 11:42:25 PM 41.8536 -105.3061 141° Southeast 477 549 39,000  Level Denver Center
Sun 11:43:27 PM 41.7558 -105.1961 140° Southeast 480 552 39,000  Level Denver Center
Sun 11:44:28 PM 41.6436 -105.0764 141° Southeast 466 536 39,000  Level Denver Center
Sun 11:45:29 PM 41.5494 -104.9717 140° Southeast 461 531 39,000  Level Denver Center
Sun 11:46:30 PM 41.4389 -104.8522 141° Southeast 460 529 39,000  Level Denver Center
Sun 11:47:31 PM 41.3422 -104.7481 141° Southeast 465 535 39,000  Level Denver Center
Sun 11:48:32 PM 41.2450 -104.6458 142° Southeast 466 536 39,000  Level Denver Center
Sun 11:49:33 PM 41.1308 -104.5203 140° Southeast 475 547 39,000  Level Denver Center
Sun 11:50:34 PM 41.0314 -104.4147 141° Southeast 477 549 39,000  Level Denver Center
Sun 11:51:35 PM 40.9167 -104.2958 142° Southeast 479 551 39,000  Level Denver Center
Sun 11:52:37 PM 40.8094 -104.1814 141° Southeast 485 558 39,000  Level Denver Center
Sun 11:53:38 PM 40.7028 -104.0711 142° Southeast 482 555 39,000  Level Denver Center
Sun 11:54:39 PM 40.5964 -103.9583 141° Southeast 484 557 39,000  Level Denver Center
Sun 11:55:40 PM 40.4906 -103.8469 141° Southeast 482 555 39,000  Level Denver Center
Sun 11:56:41 PM 40.3842 -103.7372 142° Southeast 482 555 39,000  Level Denver Center
Sun 11:57:42 PM 40.2786 -103.6275 142° Southeast 479 551 39,000  Level Denver Center
Sun 11:58:43 PM 40.1728 -103.5194 142° Southeast 477 549 39,000  Level Denver Center
Sun 11:59:44 PM 40.0658 -103.4094 142° Southeast 481 554 39,000  Level Denver Center
Mon 12:00:45 AM 39.9597 -103.3000 142° Southeast 479 551 39,000  Level Denver Center
Mon 12:01:46 AM 39.8525 -103.1917 142° Southeast 482 555 39,000  Level Denver Center
Mon 12:02:47 AM 39.7458 -103.0844 142° Southeast 480 552 39,000  Level Denver Center
Mon 12:03:48 AM 39.6397 -102.9769 142° Southeast 478 550 39,000  Level Denver Center
Mon 12:04:49 AM 39.5339 -102.8711 142° Southeast 477 549 39,000  Level Denver Center
Mon 12:05:50 AM 39.4253 -102.7628 142° Southeast 484 557 39,000  Level Denver Center
Mon 12:06:51 AM 39.3108 -102.6475 142° Southeast 483 556 39,000  Level Denver Center
Mon 12:07:52 AM 39.2075 -102.5469 143° Southeast 486 559 39,000  Level Denver Center
Mon 12:08:53 AM 39.1050 -102.4458 143° Southeast 485 558 39,000  Level Denver Center
Mon 12:09:54 AM 38.9867 -102.3281 142° Southeast 482 555 39,000  Level Denver Center
Mon 12:10:55 AM 38.8839 -102.2281 143° Southeast 484 557 39,000  Level Denver Center
Mon 12:11:56 AM 38.7811 -102.1278 143° Southeast 484 557 39,000  Level Denver Center
Mon 12:12:58 AM 38.6611 -102.0100 143° Southeast 487 560 39,000  Level Denver Center
Mon 12:13:59 AM 38.5578 -101.9089 143° Southeast 489 563 39,000  Level Denver Center
Mon 12:15:00 AM 38.4361 -101.7922 143° Southeast 490 564 39,000  Level Denver Center
Mon 12:16:00 AM 38.3328 -101.6925 143° Southeast 488 562 39,000  Level Denver Center
Mon 12:17:01 AM 38.2292 -101.5928 143° Southeast 487 560 39,000  Level Denver Center
Mon 12:18:02 AM 38.1081 -101.4767 143° Southeast 490 564 39,000  Level Denver Center
Mon 12:19:03 AM 38.0042 -101.3786 143° Southeast 487 560 39,000  Level Denver Center
Mon 12:20:04 AM 37.8994 -101.2792 143° Southeast 491 565 39,000  Level Denver Center
Mon 12:20:33 AM 37.8478 -101.2306 143° Southeast 489 563 39,000  Level Kansas City Center
Mon 12:21:31 AM 37.7494 -101.1386 144° Southeast 487 560 39,000  Level Kansas City Center
Mon 12:22:32 AM 37.6169 -101.0164 144° Southeast 489 563 39,000  Level Kansas City Center
Mon 12:23:33 AM 37.5081 -100.9119 143° Southeast 490 564 39,000  Level Kansas City Center
Mon 12:24:34 AM 37.4022 -100.8125 143° Southeast 487 560 39,000  Level Kansas City Center
Mon 12:25:36 AM 37.2975 -100.7158 144° Southeast 488 562 39,000  Level Kansas City Center
Mon 12:26:34 AM 37.1942 -100.6200 144° Southeast 485 558 39,000  Level Kansas City Center
Mon 12:27:37 AM 37.0739 -100.5089 144° Southeast 483 556 39,000  Level Kansas City Center
Mon 12:28:36 AM 36.9711 -100.4136 143° Southeast 481 554 39,000  Level Kansas City Center
Mon 12:29:36 AM 36.8664 -100.3186 144° Southeast 484 557 39,000  Level Kansas City Center
Mon 12:30:38 AM 36.7439 -100.2092 144° Southeast 484 557 39,000  Level Kansas City Center
Mon 12:31:38 AM 36.6372 -100.1103 143° Southeast 484 557 39,000  Level Kansas City Center
Mon 12:32:38 AM 36.5283 -100.0117 144° Southeast 484 557 39,000  Level Kansas City Center
Mon 12:33:38 AM 36.4200 -99.9125 144° Southeast 483 556 39,000  Level Kansas City Center
Mon 12:34:39 AM 36.3108 -99.8158 144° Southeast 482 555 39,000  Level Kansas City Center
Mon 12:35:38 AM 36.2017 -99.7186 144° Southeast 483 556 39,000  Level Kansas City Center
Mon 12:36:37 AM 36.0925 -99.6208 144° Southeast 485 558 39,000  Level Kansas City Center
Mon 12:37:39 AM 35.9819 -99.5225 144° Southeast 491 565 39,000  Level Kansas City Center
Mon 12:38:39 AM 35.8722 -99.4267 145° Southeast 490 564 39,000  Level Kansas City Center
Mon 12:39:40 AM 35.7544 -99.3222 144° Southeast 491 565 39,000  Level Kansas City Center
Mon 12:40:41 AM 35.6483 -99.2425 149° Southeast 487 560 39,000  Level Kansas City Center
Mon 12:41:39 AM 35.5331 -99.1578 149° Southeast 484 557 39,000  Level Kansas City Center
Mon 12:42:42 AM 35.4189 -99.0728 149° Southeast 482 555 39,000  Level Kansas City Center
Mon 12:43:42 AM 35.3033 -98.9867 149° Southeast 484 557 39,000  Level Kansas City Center
Mon 12:44:44 AM 35.1639 -98.8864 150° Southeast 485 558 39,000  Level Fort Worth Center
Mon 12:45:46 AM 35.0503 -98.8008 148° Southeast 485 558 39,000  Level Fort Worth Center
Mon 12:46:46 AM 34.9467 -98.7256 149° Southeast 485 558 39,000  Level Fort Worth Center
Mon 12:47:45 AM 34.8308 -98.6403 149° Southeast 485 558 39,000  Level Fort Worth Center
Mon 12:48:44 AM 34.7147 -98.5578 150° Southeast 485 558 39,000  Level Fort Worth Center
Mon 12:49:45 AM 34.5986 -98.4806 151° Southeast 480 552 39,000  Level Fort Worth Center
Mon 12:50:44 AM 34.4867 -98.3986 149° Southeast 480 552 39,000  Level Fort Worth Center
Mon 12:51:45 AM 34.3744 -98.3194 150° Southeast 475 547 39,000  Level Fort Worth Center
Mon 12:52:44 AM 34.2644 -98.2403 149° Southeast 470 541 39,000  Level Fort Worth Center
Mon 12:53:45 AM 34.1544 -98.1614 149° Southeast 465 535 39,000  Level Fort Worth Center
Mon 12:54:45 AM 34.0358 -98.0728 148° Southeast 459 528 39,000  Level Fort Worth Center
Mon 12:55:45 AM 33.9300 -97.9967 149° Southeast 459 528 39,000  Level Fort Worth Center
Mon 12:56:46 AM 33.8197 -97.9186 150° Southeast 453 521 39,000  Level Fort Worth Center
Mon 12:57:43 AM 33.7092 -97.8406 150° Southeast 458 527 39,000  Level Fort Worth Center
Mon 12:58:43 AM 33.6011 -97.7650 150° Southeast 458 527 39,000  Level Fort Worth Center
Mon 12:59:43 AM 33.5011 -97.6975 151° Southeast 458 527 39,000  Level Fort Worth Center
Mon 01:00:43 AM 33.3925 -97.6200 149° Southeast 458 527 39,000  Level Fort Worth Center
Mon 01:01:43 AM 33.2842 -97.5453 150° Southeast 463 533 39,000  Level Fort Worth Center
Mon 01:02:43 AM 33.1736 -97.4681 150° Southeast 463 533 39,000  Level Fort Worth Center
Mon 01:03:46 AM 33.0650 -97.3961 151° Southeast 458 527 39,000  Level Fort Worth Center
Mon 01:04:44 AM 32.9522 -97.3169 149° Southeast 463 533 39,000  Level Fort Worth Center
Mon 01:05:43 AM 32.8292 -97.2306 149° Southeast 468 539 39,000  Level Fort Worth Center
Mon 01:06:44 AM 32.7267 -97.1614 150° Southeast 473 544 39,000  Level Fort Worth Center
Mon 01:07:45 AM 32.6181 -97.0878 150° Southeast 457 526 39,000  Level Fort Worth Center
Mon 01:08:43 AM 32.5069 -97.0094 149° Southeast 457 526 39,000  Level Fort Worth Center
Mon 01:09:45 AM 32.3961 -96.9336 150° Southeast 467 537 39,000  Level Fort Worth Center
Mon 01:10:45 AM 32.2831 -96.8581 151° Southeast 467 537 39,000  Level Fort Worth Center
Mon 01:11:46 AM 32.1700 -96.7850 151° Southeast 459 528 39,000  Level Fort Worth Center
Mon 01:12:43 AM 32.0486 -96.7000 149° Southeast 464 534 39,000  Level Fort Worth Center
Mon 01:13:45 AM 31.9478 -96.6372 152° Southeast 459 528 39,000  Level Fort Worth Center
Mon 01:14:45 AM 31.8306 -96.5819 158° South 446 513 39,000  Level Fort Worth Center
Mon 01:17:14 AM 31.5336 -96.4342 157° South 458 527 39,000 -344 Level Houston Center
Mon 01:18:14 AM 31.4144 -96.3778 158° South 455 524 37,800 -1,950 Descending Houston Center
Mon 01:19:14 AM 31.2981 -96.3183 156° South 452 520 35,100 -2,800 Descending Houston Center
Mon 01:20:14 AM 31.1808 -96.2622 158° South 449 517 32,200 -2,876 Descending Houston Center
Mon 01:21:15 AM 31.0639 -96.2044 157° South 449 517 29,300 -2,926 Descending Houston Center
Mon 01:22:15 AM 30.9400 -96.1442 157° South 470 541 26,300 -2,966 Descending Houston Center
Mon 01:22:42 AM 30.8886 -96.1189 157° South 470 541 25,000 -2,900 Descending Houston Center
Mon 01:23:15 AM 30.8236 -96.0864 157° South 452 520 23,400 -2,909 Descending Houston Center
Mon 01:23:48 AM 30.7594 -96.0558 158° South 437 503 21,800 -2,400 Descending Houston Center
Mon 01:24:15 AM 30.7244 -96.0392 158° South 437 503 21,000 -2,776 Descending Houston Center
Mon 01:24:55 AM 30.6369 -95.9969 157° South 436 502 18,700 -3,200 Descending Houston Center
Mon 01:25:15 AM 30.6000 -95.9778 156° South 437 503 17,800 -2,800 Descending Houston Center
Mon 01:25:55 AM 30.5275 -95.9442 158° South 432 497 15,900 -2,800 Descending Houston Center
Mon 01:26:15 AM 30.4908 -95.9253 156° South 427 491 15,000 -2,951 Descending Houston Center
Mon 01:26:56 AM 30.4178 -95.8889 157° South 409 471 12,900 -2,754 Descending Houston Center
Mon 01:27:16 AM 30.3872 -95.8750 159° South 409 471 12,200 -2,459 Descending Houston Center
Mon 01:27:57 AM 30.3147 -95.8403 158° South 374 430 10,400 -1,800 Descending Houston Center
Mon 01:28:16 AM 30.2908 -95.8283 157° South 386 444 10,400 -300 Level Houston Center
Mon 01:28:57 AM 30.2358 -95.8011 157° South 282 325 10,100 -800 Descending Houston Center
Mon 01:29:16 AM 30.2169 -95.7919 157° South 303 349 9,600 -2,066 Descending Houston Center
Mon 01:29:58 AM 30.1658 -95.7683 158° South 272 313 8,000 -2,000 Descending Houston Center
Mon 01:30:16 AM 30.1469 -95.7597 158° South 275 316 7,600 -1,700 Descending Houston Center
Mon 01:30:58 AM 30.0956 -95.7353 158° South 269 310 6,300 -1,600 Descending Houston Center
Mon 01:31:16 AM 30.0789 -95.7264 155° Southeast 269 310 6,000 -1,574 Descending Houston Center
Mon 01:31:59 AM 30.0319 -95.7042 158° South 241 277 4,700 -1,700 Descending Houston Center
Mon 01:32:16 AM 30.0164 -95.6972 159° South 246 283 4,300 -590 Descending Houston Center
Mon 01:33:00 AM 29.9917 -95.6511 122° Southeast 226 260 4,100 -197 Descending Houston Center
Mon 01:33:17 AM 29.9925 -95.6342 87° East 226 260 4,100  Level Houston Center
Mon 01:34:00 AM 29.9925 -95.5908 90° East 177 204 4,100 -100 Level Houston Center
Mon 01:34:17 AM 29.9939 -95.5747 84° East 190 219 4,000 -985 Descending Houston Center
Mon 01:35:07 AM 29.9931 -95.5278 91° East 166 191 3,000 -973 Descending Houston Center
Mon 01:36:08 AM 29.9931 -95.4797 90° East 150 173 2,200 -744 Descending Houston Center
Mon 01:37:08 AM 29.9928 -95.4314 90° East 151 174 1,500 -700 Descending Houston Center

Login

Don't have an account? Register now (free) for customized features, flight alerts, and more!